Airfield :
LOGIN :

Register | Disclaimer

   EN    FR    IT 

 










Legend :    VFR   Marginal VFR   IFR   Intensive IFR   Very Intensive IFR
Visi :
Ceiling :
>= 8 km
>= 3000ft
5 to 8 km
1000 to 3000 ft
1500m to 5 km
500 to 1000 ft
800 to 1500m
200 to 500 ft
< 800m
< 200 ft
Symbols :   Thunderstorms  Fog  Heavy snow  Heavy precipitations  Wind > 20 kt
SIGMETs :     Misc.  Thunderstorms  Icing  Turbulence  Mountain Waves  Volcanic Ashes







- Airport Elevation : 427 ft
- IATA code : CIA


LIRA - Roma Ciampino

CURRENT METAR :
  • 200620Z VRB02KT 8000 -RA NSC 20/19 Q1017

EXPIRED METARs :
  • 200550Z VRB02KT 8000 -RA NSC 20/19 Q1017
  • 200520Z 05003KT 350V100 8000 -RA FEW040 20/19 Q1017
  • 200450Z 03004KT 010V080 8000 -RA NSC 20/19 Q1017 RERA
  • 200420Z VRB02KT 9999 RA NSC 20/19 Q1017
  • 200350Z 05004KT 020V090 9999 RA NSC 20/19 Q1017
  • 200320Z 04005KT 9999 RA NSC 20/19 Q1017

TAF TAF LIRA
Valid from the 20 at 06:00 until the 21 at 06:00 UTC


200500Z 2006/2106 VRB06KT 9999 SCT030
TEMPO 2009/2018 SHRA
No reported NOTAMs for that airfield.
1 SIGMET reported for the Roma FIR (LIRR) :
 
Frequent thunderstorms
LIRR SIGMET 1 VALID 200504/200700 LIIB
LIRR ROMA FIR FRQ TS FCST WI N4131 E01246 - N3836 E01047 - N3815 E01310 - N3926 E01422 - N4056 E01435 - N4131 E01246 TOP ABV FL350 STNR NC=



MET'MAP, your aeronautical weather chart ! - Copyright ORBIFLY December 2007 - Disclaimer

ORBIFLY MET'MAP TEAM :

Programming & Development : Alexandra Zaïnal
Concept & Development : Baudouin d'Aumeries
Co-Development & Prog : Marc-Olivier Méhu
Technical & hardware support : Manuel Goepfert

Contact : metmap@orbifly.com




SOURCES & CREDITS :

   NOAA